createdAt,value
2018-02-13T00:01:47.326Z,11.40
2018-02-13T00:04:14.937Z,10.82
2018-02-13T00:06:42.555Z,11.73
2018-02-13T00:09:10.128Z,11.15
2018-02-13T00:11:37.771Z,10.15
2018-02-13T00:14:05.367Z,9.60
2018-02-13T00:16:33.738Z,10.40
2018-02-13T00:19:02.145Z,10.85
2018-02-13T00:21:29.816Z,10.48
2018-02-13T00:23:57.495Z,10.70
2018-02-13T00:26:25.126Z,10.43
2018-02-13T00:28:52.726Z,9.90
2018-02-13T00:31:20.313Z,10.48
2018-02-13T00:33:47.942Z,10.05
2018-02-13T00:36:15.534Z,10.93
2018-02-13T00:38:43.154Z,10.77
2018-02-13T00:41:10.750Z,10.88
2018-02-13T00:43:38.381Z,11.48
2018-02-13T00:46:06.031Z,11.18
2018-02-13T00:48:33.627Z,10.73
2018-02-13T00:51:01.215Z,10.77
2018-02-13T00:53:29.614Z,10.20
2018-02-13T00:55:57.187Z,10.95
2018-02-13T00:58:24.843Z,12.02
2018-02-13T01:00:52.440Z,11.48
2018-02-13T01:03:20.040Z,11.27
2018-02-13T01:05:48.406Z,12.25
2018-02-13T01:08:16.800Z,11.70
2018-02-13T01:10:45.169Z,11.73
2018-02-13T01:13:13.506Z,11.25
2018-02-13T01:15:41.158Z,10.70
2018-02-13T01:18:08.757Z,11.57
2018-02-13T01:20:36.386Z,11.30
2018-02-13T01:23:03.994Z,12.15
2018-02-13T01:25:31.632Z,10.90
2018-02-13T01:27:59.246Z,10.82
2018-02-13T01:30:26.823Z,11.07
2018-02-13T01:32:54.411Z,10.05
2018-02-13T01:35:22.050Z,9.40
2018-02-13T01:37:49.634Z,8.70
2018-02-13T01:40:17.270Z,9.20
2018-02-13T01:42:44.874Z,8.75
2018-02-13T01:45:13.246Z,8.48
2018-02-13T01:47:41.591Z,8.85
2018-02-13T01:50:25.911Z,8.93
2018-02-13T01:52:53.512Z,8.95
2018-02-13T01:55:21.086Z,8.13
2018-02-13T01:57:48.698Z,8.15
2018-02-13T02:00:17.026Z,8.20
2018-02-13T02:02:45.371Z,8.20
2018-02-13T02:05:12.964Z,6.93
2018-02-13T02:07:40.568Z,8.20
2018-02-13T02:10:08.136Z,7.85
2018-02-13T02:12:35.734Z,9.23
2018-02-13T02:15:03.311Z,9.50
2018-02-13T02:17:31.726Z,9.50
2018-02-13T02:19:59.354Z,9.70
2018-02-13T02:22:27.728Z,10.25
2018-02-13T02:24:55.302Z,9.65
2018-02-13T02:27:22.913Z,9.05
2018-02-13T02:29:50.516Z,9.13
2018-02-13T02:32:18.107Z,9.27
2018-02-13T02:34:45.769Z,8.05
2018-02-13T02:37:13.353Z,8.73
2018-02-13T02:39:40.983Z,9.00
2018-02-13T02:42:08.586Z,9.45
2018-02-13T02:44:36.146Z,9.20
2018-02-13T02:47:03.759Z,8.30
2018-02-13T02:49:31.358Z,8.75
2018-02-13T02:51:59.000Z,8.50
2018-02-13T02:54:26.622Z,8.55
2018-02-13T02:56:54.985Z,8.88
2018-02-13T03:02:16.807Z,9.00
2018-02-13T03:04:44.376Z,8.82
2018-02-13T03:07:11.962Z,10.30
2018-02-13T03:09:40.306Z,9.52
2018-02-13T03:12:07.903Z,8.80
2018-02-13T03:14:36.266Z,8.88
2018-02-13T03:17:04.672Z,9.13
2018-02-13T03:19:32.253Z,9.73
2018-02-13T03:21:59.883Z,9.70
2018-02-13T03:24:27.471Z,8.63
2018-02-13T03:26:55.045Z,9.85
2018-02-13T03:29:22.687Z,9.13
2018-02-13T03:31:50.247Z,8.95
2018-02-13T03:34:17.842Z,9.55
2018-02-13T03:36:45.430Z,9.45
2018-02-13T03:39:13.833Z,10.18
2018-02-13T03:41:41.434Z,9.90
2018-02-13T03:44:09.055Z,8.90
2018-02-13T03:46:36.634Z,9.80
2018-02-13T03:49:04.258Z,9.40
2018-02-13T03:51:32.630Z,9.43
2018-02-13T03:54:01.051Z,9.60
2018-02-13T03:56:28.658Z,9.35
2018-02-13T03:58:56.286Z,9.50
2018-02-13T04:01:23.841Z,9.50
2018-02-13T04:03:51.463Z,10.05
2018-02-13T04:06:19.097Z,10.20
2018-02-13T04:08:46.705Z,10.60
2018-02-13T04:11:14.365Z,10.73
2018-02-13T04:13:41.950Z,11.15
2018-02-13T04:16:09.598Z,10.40
2018-02-13T04:18:37.188Z,11.00
2018-02-13T04:21:04.799Z,10.68
2018-02-13T04:23:32.354Z,9.77
2018-02-13T04:25:59.955Z,11.60
2018-02-13T04:28:27.522Z,11.40
2018-02-13T04:30:55.164Z,12.25
2018-02-13T04:33:22.795Z,11.70
2018-02-13T04:35:50.382Z,12.85
2018-02-13T04:38:17.964Z,12.85
2018-02-13T04:40:45.585Z,12.27
2018-02-13T04:43:13.211Z,13.05
2018-02-13T04:45:40.843Z,14.05
2018-02-13T04:48:08.430Z,14.32
2018-02-13T04:50:36.010Z,13.43
2018-02-13T04:53:03.626Z,16.45
2018-02-13T04:55:31.252Z,14.75
2018-02-13T04:57:58.884Z,15.10
2018-02-13T05:00:27.239Z,16.25
2018-02-13T05:02:54.842Z,15.30
2018-02-13T05:05:22.463Z,15.02
2018-02-13T05:07:50.083Z,15.15
2018-02-13T05:10:17.730Z,15.02
2018-02-13T05:12:45.321Z,17.50
2018-02-13T05:15:12.935Z,16.10
2018-02-13T05:17:41.331Z,17.45
2018-02-13T05:20:08.953Z,17.42
2018-02-13T05:22:36.546Z,16.77
2018-02-13T05:25:04.098Z,17.08
2018-02-13T05:27:31.724Z,15.35
2018-02-13T05:29:59.956Z,15.13
2018-02-13T05:32:27.590Z,14.32
2018-02-13T05:34:55.183Z,13.00
2018-02-13T05:37:22.790Z,14.50
2018-02-13T05:39:51.161Z,12.50
2018-02-13T05:42:18.773Z,13.05
2018-02-13T05:44:46.367Z,13.88
2018-02-13T05:47:13.970Z,12.30
2018-02-13T05:49:42.342Z,12.32
2018-02-13T05:52:10.686Z,11.25
2018-02-13T05:54:38.296Z,11.95
2018-02-13T05:57:05.886Z,11.20
2018-02-13T05:59:33.487Z,11.93
2018-02-13T06:02:01.058Z,11.43
2018-02-13T06:04:29.421Z,12.90
2018-02-13T06:06:57.789Z,13.45
2018-02-13T06:09:25.412Z,13.43
2018-02-13T06:11:53.688Z,12.10
2018-02-13T06:14:21.321Z,16.15
2018-02-13T06:16:48.937Z,12.80
2018-02-13T06:19:16.570Z,12.88
2018-02-13T06:21:44.162Z,12.77
2018-02-13T06:24:11.746Z,14.15
2018-02-13T06:26:40.109Z,17.12
2018-02-13T06:29:07.726Z,15.20
2018-02-13T06:31:35.344Z,28.00
2018-02-13T06:34:03.729Z,15.70
2018-02-13T06:36:32.102Z,15.30
2018-02-13T06:39:00.533Z,23.05
2018-02-13T06:41:28.154Z,45.58
2018-02-13T06:43:56.566Z,31.25
2018-02-13T06:46:24.159Z,20.00
2018-02-13T06:48:51.730Z,16.85
2018-02-13T06:51:19.363Z,16.50
2018-02-13T06:53:47.011Z,19.55
2018-02-13T06:56:14.622Z,22.52
2018-02-13T06:58:42.986Z,22.85
2018-02-13T07:01:10.610Z,15.70
2018-02-13T07:03:38.207Z,14.85
2018-02-13T07:06:05.794Z,15.95
2018-02-13T07:08:34.171Z,17.42
2018-02-13T07:11:02.538Z,25.30
2018-02-13T07:13:30.906Z,23.80
2018-02-13T07:15:58.507Z,20.20
2018-02-13T07:18:26.127Z,19.20
2018-02-13T07:20:53.708Z,18.50
2018-02-13T07:23:22.074Z,19.20
2018-02-13T07:25:50.452Z,23.75
2018-02-13T07:28:18.835Z,20.48
2018-02-13T07:30:47.210Z,16.10
2018-02-13T07:33:14.844Z,13.80
2018-02-13T07:35:42.446Z,14.90
2018-02-13T07:38:10.103Z,13.93
2018-02-13T07:40:38.442Z,14.65
2018-02-13T07:43:06.079Z,14.80
2018-02-13T07:45:33.690Z,12.50
2018-02-13T07:48:01.994Z,13.93
2018-02-13T07:50:29.567Z,13.48
2018-02-13T07:52:57.165Z,13.35
2018-02-13T07:55:24.757Z,16.30
2018-02-13T07:57:53.125Z,18.83
2018-02-13T08:00:21.474Z,16.02
2018-02-13T08:02:49.080Z,16.02
2018-02-13T08:05:16.677Z,14.43
2018-02-13T08:07:44.308Z,13.90
2018-02-13T08:10:11.866Z,14.32
2018-02-13T08:12:39.441Z,15.52
2018-02-13T08:15:07.109Z,12.88
2018-02-13T08:17:35.430Z,13.07
2018-02-13T08:20:03.042Z,12.63
2018-02-13T08:22:30.606Z,12.88
2018-02-13T08:24:58.229Z,11.07
2018-02-13T08:27:25.866Z,11.02
2018-02-13T08:29:53.438Z,10.23
2018-02-13T08:32:21.790Z,10.30
2018-02-13T08:34:49.359Z,9.65
2018-02-13T08:37:16.919Z,11.45
2018-02-13T08:39:44.537Z,10.13
2018-02-13T08:42:12.157Z,9.23
2018-02-13T08:44:39.782Z,8.05
2018-02-13T08:47:07.334Z,7.95
2018-02-13T08:49:34.925Z,5.35
2018-02-13T08:52:02.530Z,6.05
2018-02-13T08:54:30.110Z,6.72
2018-02-13T08:56:57.667Z,6.55
2018-02-13T08:59:25.265Z,6.67
2018-02-13T09:01:53.561Z,7.87
2018-02-13T09:04:21.921Z,6.80
2018-02-13T09:06:49.539Z,6.40
2018-02-13T09:09:17.828Z,6.40
2018-02-13T09:11:45.384Z,6.23
2018-02-13T09:14:12.992Z,6.23
2018-02-13T09:16:40.580Z,6.77
2018-02-13T09:19:08.160Z,6.77
2018-02-13T09:21:35.750Z,6.00
2018-02-13T09:24:03.315Z,6.00
2018-02-13T09:26:30.934Z,4.27
2018-02-13T09:28:58.473Z,2.50
2018-02-13T09:31:26.068Z,1.90
2018-02-13T09:33:53.691Z,1.80
2018-02-13T09:36:21.316Z,1.90
2018-02-13T09:38:48.908Z,1.80
2018-02-13T09:41:17.304Z,1.67
2018-02-13T09:43:44.948Z,2.10
2018-02-13T09:46:13.322Z,1.70
2018-02-13T09:48:40.878Z,2.07
2018-02-13T09:51:09.190Z,1.67
2018-02-13T09:53:36.834Z,1.80
2018-02-13T09:56:04.386Z,2.00
2018-02-13T09:58:31.990Z,1.70
2018-02-13T10:00:59.562Z,2.10
2018-02-13T10:03:27.181Z,2.10
2018-02-13T10:05:54.790Z,2.17
2018-02-13T10:08:22.403Z,2.20
2018-02-13T10:10:50.202Z,1.80
2018-02-13T10:13:17.740Z,1.73
2018-02-13T10:15:45.367Z,2.00
2018-02-13T10:18:13.606Z,2.33
2018-02-13T10:20:41.199Z,2.07
2018-02-13T10:23:08.798Z,2.20
2018-02-13T10:25:36.407Z,1.90
2018-02-13T10:28:04.719Z,2.27
2018-02-13T10:30:32.309Z,1.90
2018-02-13T10:32:59.874Z,2.20
2018-02-13T10:35:27.466Z,2.30
2018-02-13T10:37:55.808Z,2.33
2018-02-13T10:40:23.444Z,2.87
2018-02-13T10:42:51.049Z,2.10
2018-02-13T10:45:18.622Z,2.50
2018-02-13T10:47:47.013Z,2.67
2018-02-13T10:50:14.570Z,2.20
2018-02-13T10:52:42.889Z,3.40
2018-02-13T10:55:10.471Z,3.00
2018-02-13T10:57:38.116Z,3.03
2018-02-13T11:00:05.668Z,2.67
2018-02-13T11:02:33.603Z,2.43
2018-02-13T11:05:01.192Z,2.73
2018-02-13T11:07:28.779Z,3.33
2018-02-13T11:09:56.414Z,3.00
2018-02-13T11:12:23.966Z,2.77
2018-02-13T11:14:52.361Z,2.83
2018-02-13T11:17:19.942Z,2.83
2018-02-13T11:19:47.530Z,3.00
2018-02-13T11:22:15.085Z,3.03
2018-02-13T11:24:43.463Z,3.10
2018-02-13T11:27:11.839Z,3.33
2018-02-13T11:29:40.164Z,3.05
2018-02-13T11:32:07.769Z,3.47
2018-02-13T11:34:35.367Z,3.00
2018-02-13T11:37:02.998Z,3.30
2018-02-13T11:39:31.361Z,3.22
2018-02-13T11:41:58.974Z,2.90
2018-02-13T11:44:26.592Z,3.45
2018-02-13T11:46:54.165Z,3.12
2018-02-13T11:49:22.521Z,2.78
2018-02-13T11:51:50.120Z,3.25
2018-02-13T11:54:17.715Z,3.20
2018-02-13T11:56:45.345Z,3.17
2018-02-13T11:59:12.964Z,3.45
2018-02-13T12:01:40.533Z,3.40
2018-02-13T12:04:08.890Z,3.10
2018-02-13T12:06:36.486Z,3.15
2018-02-13T12:09:04.088Z,3.00
2018-02-13T12:11:31.669Z,3.03
2018-02-13T12:13:59.297Z,3.20
2018-02-13T12:16:26.851Z,2.90
2018-02-13T12:18:54.474Z,3.12
2018-02-13T12:21:22.867Z,3.15
2018-02-13T12:23:50.473Z,2.90
2018-02-13T12:26:18.091Z,2.70
2018-02-13T12:28:45.713Z,2.97
2018-02-13T12:31:13.283Z,3.17
2018-02-13T12:33:40.906Z,3.10
2018-02-13T12:36:08.521Z,2.72
2018-02-13T12:38:36.100Z,3.15
2018-02-13T12:41:03.700Z,3.45
2018-02-13T12:43:31.300Z,3.28
2018-02-13T12:45:59.637Z,3.45
2018-02-13T12:48:27.194Z,3.15
2018-02-13T12:50:54.788Z,3.20
2018-02-13T12:53:23.148Z,3.10
2018-02-13T12:55:50.718Z,2.80
2018-02-13T12:58:18.296Z,2.80
2018-02-13T13:00:45.935Z,3.20
2018-02-13T13:03:13.502Z,3.30
2018-02-13T13:05:41.088Z,2.80
2018-02-13T13:08:08.735Z,3.33
2018-02-13T13:10:37.062Z,3.33
2018-02-13T13:13:04.654Z,3.50
2018-02-13T13:15:32.247Z,3.20
2018-02-13T13:17:59.828Z,3.83
2018-02-13T13:20:27.430Z,3.45
2018-02-13T13:22:55.033Z,3.20
2018-02-13T13:25:22.611Z,3.33
2018-02-13T13:27:50.221Z,3.55
2018-02-13T13:30:17.807Z,3.30
2018-02-13T13:32:45.354Z,3.33
2018-02-13T13:35:13.731Z,3.10
2018-02-13T13:37:41.325Z,3.20
2018-02-13T13:40:08.996Z,3.20
2018-02-13T13:42:36.614Z,3.28
2018-02-13T13:45:04.958Z,3.67
2018-02-13T13:47:32.577Z,3.87
2018-02-13T13:50:00.127Z,3.70
2018-02-13T13:52:27.730Z,3.40
2018-02-13T13:54:55.363Z,3.75
2018-02-13T13:57:22.959Z,3.50
2018-02-13T13:59:50.542Z,4.10
2018-02-13T14:02:19.807Z,3.87
2018-02-13T14:04:50.872Z,3.92
2018-02-13T14:07:18.468Z,4.30
2018-02-13T14:09:46.074Z,4.85
2018-02-13T14:12:13.667Z,4.40
2018-02-13T14:14:41.288Z,5.05
2018-02-13T14:17:08.866Z,4.50
2018-02-13T14:19:37.263Z,4.57
2018-02-13T14:22:05.631Z,4.80
2018-02-13T14:24:33.291Z,5.18
2018-02-13T14:27:00.862Z,5.00
2018-02-13T14:29:29.174Z,4.82
2018-02-13T14:31:56.784Z,4.80
2018-02-13T14:34:24.342Z,4.75
2018-02-13T14:36:51.918Z,5.30
2018-02-13T14:39:20.351Z,5.15
2018-02-13T14:41:47.936Z,5.28
2018-02-13T14:44:15.598Z,4.60
2018-02-13T14:46:43.155Z,5.35
2018-02-13T14:49:10.763Z,5.18
2018-02-13T14:51:38.335Z,5.05
2018-02-13T14:54:05.922Z,4.85
2018-02-13T14:56:33.507Z,5.45
2018-02-13T14:59:01.130Z,5.37
2018-02-13T15:01:28.690Z,5.65
2018-02-13T15:03:56.259Z,5.07
2018-02-13T15:06:23.849Z,5.22
2018-02-13T15:08:52.182Z,5.25
2018-02-13T15:11:19.792Z,4.85
2018-02-13T15:13:48.185Z,4.95
2018-02-13T15:16:15.801Z,4.70
2018-02-13T15:18:43.410Z,4.30
2018-02-13T15:21:11.020Z,5.00
2018-02-13T15:23:38.575Z,4.70
2018-02-13T15:26:06.174Z,4.57
2018-02-13T15:28:34.538Z,4.43
2018-02-13T15:31:02.162Z,4.55
2018-02-13T15:33:29.784Z,5.95
2018-02-13T15:35:57.404Z,4.72
2018-02-13T15:38:25.002Z,4.35
2018-02-13T15:40:54.837Z,4.07
2018-02-13T15:43:22.419Z,3.67
2018-02-13T15:45:50.027Z,4.00
2018-02-13T15:48:18.384Z,4.07
2018-02-13T15:50:45.980Z,3.55
2018-02-13T15:53:13.543Z,4.30
2018-02-13T15:55:41.123Z,4.00
2018-02-13T15:58:08.726Z,3.65
2018-02-13T16:00:36.314Z,3.70
2018-02-13T16:03:03.894Z,3.35
2018-02-13T16:05:31.448Z,4.00
2018-02-13T16:07:59.081Z,4.00
2018-02-13T16:10:28.367Z,4.15
2018-02-13T16:12:56.002Z,4.20
2018-02-13T16:15:23.580Z,5.40
2018-02-13T16:17:51.159Z,5.25
2018-02-13T16:20:19.526Z,4.85
2018-02-13T16:22:47.115Z,4.75
2018-02-13T16:25:14.699Z,4.35
2018-02-13T16:27:42.310Z,5.37
2018-02-13T16:30:09.891Z,4.78
2018-02-13T16:32:41.655Z,5.40
2018-02-13T16:35:11.267Z,5.90
2018-02-13T16:37:42.016Z,4.72
2018-02-13T16:40:09.607Z,5.70
2018-02-13T16:42:37.225Z,5.70
2018-02-13T16:45:04.791Z,5.57
2018-02-13T16:47:32.376Z,5.40
2018-02-13T16:49:59.991Z,5.90
2018-02-13T16:52:33.309Z,5.55
2018-02-13T16:55:00.912Z,6.20
2018-02-13T16:59:08.888Z,6.80
2018-02-13T17:18:15.549Z,6.90
2018-02-13T17:20:43.084Z,6.72
2018-02-13T17:23:11.407Z,7.10
2018-02-13T17:25:39.014Z,7.03
2018-02-13T17:28:06.607Z,6.45
2018-02-13T17:30:34.232Z,7.62
2018-02-13T17:33:01.811Z,8.10
2018-02-13T17:35:29.478Z,6.97
2018-02-13T17:37:57.080Z,7.10
2018-02-13T17:40:24.672Z,6.68
2018-02-13T17:42:52.259Z,7.22
2018-02-13T17:45:19.887Z,7.80
2018-02-13T17:47:47.497Z,11.65
2018-02-13T17:50:15.118Z,15.00
2018-02-13T17:52:44.651Z,41.30
2018-02-13T17:55:12.291Z,18.70
2018-02-13T17:57:39.879Z,9.25
2018-02-13T18:00:07.471Z,9.18
2018-02-13T18:02:35.044Z,8.00
2018-02-13T18:05:02.630Z,10.45
2018-02-13T18:07:30.279Z,11.07
2018-02-13T18:09:57.850Z,16.42
2018-02-13T18:12:25.483Z,15.30
2018-02-13T18:14:53.104Z,15.07
2018-02-13T18:17:20.702Z,16.80
2018-02-13T18:19:48.312Z,14.90
2018-02-13T18:22:15.900Z,13.85
2018-02-13T18:24:43.493Z,14.60
2018-02-13T18:27:11.193Z,13.75
2018-02-13T18:29:38.792Z,12.60
2018-02-13T18:32:06.396Z,9.77
2018-02-13T18:34:33.970Z,10.73
2018-02-13T18:37:02.326Z,11.43
2018-02-13T18:39:29.925Z,10.00
2018-02-13T18:41:57.573Z,10.50
2018-02-13T18:44:25.227Z,8.63
2018-02-13T18:46:53.618Z,8.73
2018-02-13T18:49:21.214Z,9.75
2018-02-13T18:51:48.793Z,10.38
2018-02-13T18:54:16.365Z,9.50
2018-02-13T18:56:43.951Z,9.68
2018-02-13T18:59:12.298Z,21.75
2018-02-13T19:01:39.934Z,10.88
2018-02-13T19:04:07.576Z,10.52
2018-02-13T19:06:35.215Z,12.65
2018-02-13T19:09:02.897Z,9.48
2018-02-13T19:11:30.500Z,10.57
2018-02-13T19:13:58.103Z,14.70
2018-02-13T19:16:25.715Z,11.98
2018-02-13T19:18:53.370Z,9.43
2018-02-13T19:21:21.026Z,12.00
2018-02-13T19:23:48.646Z,11.02
2018-02-13T19:26:16.259Z,13.15
2018-02-13T19:28:43.872Z,12.63
2018-02-13T19:31:11.539Z,12.20
2018-02-13T19:33:39.150Z,9.48
2018-02-13T19:36:06.755Z,10.25
2018-02-13T19:38:34.399Z,9.10
2018-02-13T19:41:02.009Z,9.70
2018-02-13T19:43:29.612Z,9.15
2018-02-13T19:45:58.006Z,9.05
2018-02-13T19:48:25.708Z,10.10
2018-02-13T19:50:53.342Z,10.50
2018-02-13T19:53:20.982Z,11.35
2018-02-13T19:55:49.372Z,12.35
2018-02-13T19:58:16.969Z,8.85
2018-02-13T20:00:44.580Z,9.48
2018-02-13T20:03:12.169Z,12.60
2018-02-13T20:05:53.226Z,9.20
2018-02-13T20:08:20.842Z,10.02
2018-02-13T20:10:48.441Z,9.90
2018-02-13T20:13:16.836Z,9.88
2018-02-13T20:15:44.421Z,11.90
2018-02-13T20:18:12.055Z,12.20
2018-02-13T20:20:39.675Z,20.40
2018-02-13T20:23:07.317Z,15.23
2018-02-13T20:25:34.955Z,9.95
2018-02-13T20:28:02.586Z,9.98
2018-02-13T20:30:30.192Z,14.35
2018-02-13T20:32:57.807Z,12.13
2018-02-13T20:35:25.451Z,11.45
2018-02-13T20:37:53.832Z,9.85
2018-02-13T20:40:22.200Z,9.75
2018-02-13T20:42:49.809Z,9.73
2018-02-13T20:45:17.429Z,11.40
2018-02-13T20:47:45.844Z,9.27
2018-02-13T20:50:13.399Z,8.57
2018-02-13T20:52:40.979Z,9.60
2018-02-13T20:55:08.580Z,9.50
2018-02-13T20:57:36.176Z,9.10
2018-02-13T21:00:18.785Z,10.52
2018-02-13T21:02:46.399Z,14.75
2018-02-13T21:05:14.002Z,7.72
2018-02-13T21:07:41.600Z,8.73
2018-02-13T21:10:09.215Z,8.98
2018-02-13T21:12:37.536Z,9.35
2018-02-13T21:15:05.143Z,8.45
2018-02-13T21:17:33.492Z,8.30
2018-02-13T21:20:01.123Z,10.00
2018-02-13T21:22:28.777Z,9.07
2018-02-13T21:24:56.372Z,11.75
2018-02-13T21:27:23.980Z,15.15
2018-02-13T21:29:51.561Z,11.82
2018-02-13T21:32:19.204Z,17.48
2018-02-13T21:34:46.815Z,9.45
2018-02-13T21:37:14.454Z,10.18
2018-02-13T21:39:42.098Z,11.52
2018-02-13T21:42:09.722Z,12.35
2018-02-13T21:44:38.052Z,9.07
2018-02-13T21:47:05.678Z,10.70
2018-02-13T21:49:34.047Z,20.85
2018-02-13T21:52:02.415Z,25.70
2018-02-13T21:54:30.806Z,21.92
2018-02-13T21:56:59.143Z,30.83
2018-02-13T21:59:26.782Z,13.20
2018-02-13T22:01:54.420Z,14.38
2018-02-13T22:04:22.031Z,15.10
2018-02-13T22:06:49.651Z,15.98
2018-02-13T22:09:17.280Z,18.20
2018-02-13T22:11:45.644Z,14.55
2018-02-13T22:14:13.283Z,16.58
2018-02-13T22:16:40.883Z,29.67
2018-02-13T22:19:09.231Z,24.45
2018-02-13T22:21:36.847Z,22.30
2018-02-13T22:24:04.416Z,18.00
2018-02-13T22:26:32.006Z,14.25
2018-02-13T22:28:59.598Z,13.00
2018-02-13T22:31:27.972Z,13.65
2018-02-13T22:33:56.305Z,14.68
2018-02-13T22:36:23.911Z,13.50
2018-02-13T22:38:52.238Z,15.80
2018-02-13T22:41:20.647Z,15.55
2018-02-13T22:43:48.235Z,15.88
2018-02-13T22:46:16.616Z,14.35
2018-02-13T22:48:44.964Z,13.30
2018-02-13T22:51:12.586Z,11.60
2018-02-13T22:53:40.183Z,12.00
2018-02-13T22:56:07.802Z,11.05
2018-02-13T22:58:35.391Z,12.20
2018-02-13T23:01:03.036Z,12.40
2018-02-13T23:03:30.605Z,11.85
2018-02-13T23:05:58.215Z,11.95
2018-02-13T23:08:26.579Z,11.70
2018-02-13T23:11:15.687Z,11.80
2018-02-13T23:13:43.272Z,11.93
2018-02-13T23:16:10.879Z,11.45
2018-02-13T23:18:39.216Z,12.05
2018-02-13T23:21:06.822Z,12.13
2018-02-13T23:23:34.885Z,12.20
2018-02-13T23:26:03.211Z,11.20
2018-02-13T23:28:30.817Z,12.18
2018-02-13T23:30:59.166Z,12.45
2018-02-13T23:33:26.776Z,11.98
2018-02-13T23:35:54.351Z,12.75
2018-02-13T23:38:21.956Z,12.60
2018-02-13T23:40:49.527Z,12.00
2018-02-13T23:43:17.870Z,12.40
2018-02-13T23:45:45.485Z,13.00
2018-02-13T23:48:13.828Z,12.02
2018-02-13T23:50:41.445Z,12.85
2018-02-13T23:53:09.072Z,13.25
2018-02-13T23:55:37.451Z,12.57
2018-02-13T23:58:05.809Z,13.68
